Lakenheath, United Kingdom
Current Conditions -  °F | °C
As of 3:58 AM on Saturday 25 Oct 2014 (Local Time) from EGUL Reporting Station
Clear Clear  
Wind Chill: 41°   Ceiling: Unl
Heat Index: 45°   Visibility: 6mi
Dew Point: 45°   Wind: 7mph
Humidity: 100%   Direction: 220°SW
Pressure: 29.96"   Gusts: NA
Location:  52.42°N, 0.52°E
Report Text: EGUL 250258Z AUTO 22006KT 9999 CLR 07/07 A2996 RMK AO2 SLP149 T00720072 50000
Loading
Personal Weather Stations






























Interactive Weather Map
Tropical Storm Tracking
New forecast layout! Learn more

10-Day Weather Forecast

Advertisements
Track Severe Weather on mobile